sensor_id;sensor_type;location;lat;lon;timestamp;P1;durP1;ratioP1;P2;durP2;ratioP2
52868;SDS011;39100;53.480;6.158;2022-10-16T00:01:19;0.68;;;0.25;;
52868;SDS011;39100;53.480;6.158;2022-10-16T00:03:46;2.72;;;0.20;;
52868;SDS011;39100;53.480;6.158;2022-10-16T00:06:12;1.33;;;0.52;;
52868;SDS011;39100;53.480;6.158;2022-10-16T00:08:39;1.90;;;0.20;;
52868;SDS011;39100;53.480;6.158;2022-10-16T00:11:06;2.80;;;0.20;;
52868;SDS011;39100;53.480;6.158;2022-10-16T00:13:37;0.82;;;0.10;;
52868;SDS011;39100;53.480;6.158;2022-10-16T00:16:05;1.85;;;0.30;;
52868;SDS011;39100;53.480;6.158;2022-10-16T00:18:31;2.28;;;0.52;;
52868;SDS011;39100;53.480;6.158;2022-10-16T00:21:03;2.95;;;0.30;;
52868;SDS011;39100;53.480;6.158;2022-10-16T00:23:34;3.47;;;0.30;;
52868;SDS011;39100;53.480;6.158;2022-10-16T00:26:02;0.32;;;0.20;;
52868;SDS011;39100;53.480;6.158;2022-10-16T00:28:29;1.48;;;0.43;;
52868;SDS011;39100;53.480;6.158;2022-10-16T00:30:55;2.60;;;0.25;;
52868;SDS011;39100;53.480;6.158;2022-10-16T00:33:21;1.30;;;0.40;;
52868;SDS011;39100;53.480;6.158;2022-10-16T00:35:47;0.68;;;0.25;;
52868;SDS011;39100;53.480;6.158;2022-10-16T00:38:12;0.75;;;0.28;;
52868;SDS011;39100;53.480;6.158;2022-10-16T00:40:38;3.42;;;0.52;;
52868;SDS011;39100;53.480;6.158;2022-10-16T00:43:09;2.85;;;0.22;;
52868;SDS011;39100;53.480;6.158;2022-10-16T00:45:38;2.35;;;0.35;;
52868;SDS011;39100;53.480;6.158;2022-10-16T00:48:04;2.08;;;0.28;;
52868;SDS011;39100;53.480;6.158;2022-10-16T00:50:33;2.08;;;0.20;;
52868;SDS011;39100;53.480;6.158;2022-10-16T00:53:00;1.73;;;0.57;;
52868;SDS011;39100;53.480;6.158;2022-10-16T00:55:27;1.10;;;0.15;;
52868;SDS011;39100;53.480;6.158;2022-10-16T00:57:55;1.38;;;0.45;;
52868;SDS011;39100;53.480;6.158;2022-10-16T01:00:23;1.75;;;0.20;;
52868;SDS011;39100;53.480;6.158;2022-10-16T01:02:57;1.70;;;0.10;;
52868;SDS011;39100;53.480;6.158;2022-10-16T01:05:26;3.40;;;0.57;;
52868;SDS011;39100;53.480;6.158;2022-10-16T01:08:10;4.38;;;0.40;;
52868;SDS011;39100;53.480;6.158;2022-10-16T01:10:44;0.43;;;0.10;;
52868;SDS011;39100;53.480;6.158;2022-10-16T01:13:21;0.95;;;0.30;;
52868;SDS011;39100;53.480;6.158;2022-10-16T01:15:52;1.25;;;0.28;;
52868;SDS011;39100;53.480;6.158;2022-10-16T01:18:28;0.32;;;0.08;;
52868;SDS011;39100;53.480;6.158;2022-10-16T01:21:01;0.82;;;0.10;;
52868;SDS011;39100;53.480;6.158;2022-10-16T01:29:03;2.88;;;0.20;;
52868;SDS011;39100;53.480;6.158;2022-10-16T01:32:18;1.80;;;0.57;;
52868;SDS011;39100;53.480;6.158;2022-10-16T01:34:59;1.63;;;0.40;;
52868;SDS011;39100;53.480;6.158;2022-10-16T01:37:35;1.13;;;0.28;;
52868;SDS011;39100;53.480;6.158;2022-10-16T01:40:06;1.40;;;0.20;;
52868;SDS011;39100;53.480;6.158;2022-10-16T01:42:36;1.65;;;0.28;;
52868;SDS011;39100;53.480;6.158;2022-10-16T01:45:30;1.05;;;0.20;;
52868;SDS011;39100;53.480;6.158;2022-10-16T01:47:57;1.40;;;0.22;;
52868;SDS011;39100;53.480;6.158;2022-10-16T01:50:25;0.52;;;0.20;;
52868;SDS011;39100;53.480;6.158;2022-10-16T01:52:52;0.98;;;0.52;;
52868;SDS011;39100;53.480;6.158;2022-10-16T01:55:22;1.20;;;0.10;;
52868;SDS011;39100;53.480;6.158;2022-10-16T01:57:54;0.10;;;0.00;;
52868;SDS011;39100;53.480;6.158;2022-10-16T02:00:21;0.40;;;0.10;;
52868;SDS011;39100;53.480;6.158;2022-10-16T02:02:47;4.00;;;0.25;;
52868;SDS011;39100;53.480;6.158;2022-10-16T02:05:20;0.57;;;0.20;;
52868;SDS011;39100;53.480;6.158;2022-10-16T02:07:51;1.48;;;0.40;;
52868;SDS011;39100;53.480;6.158;2022-10-16T02:10:17;0.73;;;0.50;;
52868;SDS011;39100;53.480;6.158;2022-10-16T02:12:45;0.73;;;0.20;;
52868;SDS011;39100;53.480;6.158;2022-10-16T02:15:21;1.33;;;0.10;;
52868;SDS011;39100;53.480;6.158;2022-10-16T02:17:46;1.77;;;0.60;;
52868;SDS011;39100;53.480;6.158;2022-10-16T02:20:12;3.50;;;0.40;;
52868;SDS011;39100;53.480;6.158;2022-10-16T02:22:39;0.60;;;0.20;;
52868;SDS011;39100;53.480;6.158;2022-10-16T02:25:22;0.50;;;0.30;;
52868;SDS011;39100;53.480;6.158;2022-10-16T02:30:39;1.83;;;0.20;;
52868;SDS011;39100;53.480;6.158;2022-10-16T02:33:13;0.95;;;0.17;;
52868;SDS011;39100;53.480;6.158;2022-10-16T02:35:40;0.57;;;0.20;;
52868;SDS011;39100;53.480;6.158;2022-10-16T02:38:07;0.75;;;0.30;;
52868;SDS011;39100;53.480;6.158;2022-10-16T02:40:34;0.80;;;0.10;;
52868;SDS011;39100;53.480;6.158;2022-10-16T02:43:02;1.23;;;0.30;;
52868;SDS011;39100;53.480;6.158;2022-10-16T02:45:29;1.60;;;0.10;;
52868;SDS011;39100;53.480;6.158;2022-10-16T02:47:55;0.98;;;0.32;;
52868;SDS011;39100;53.480;6.158;2022-10-16T02:50:20;1.45;;;0.30;;
52868;SDS011;39100;53.480;6.158;2022-10-16T02:52:47;1.13;;;0.43;;
52868;SDS011;39100;53.480;6.158;2022-10-16T02:55:13;0.82;;;0.47;;
52868;SDS011;39100;53.480;6.158;2022-10-16T02:57:38;2.25;;;0.30;;
52868;SDS011;39100;53.480;6.158;2022-10-16T03:00:05;2.05;;;0.30;;
52868;SDS011;39100;53.480;6.158;2022-10-16T03:02:35;1.55;;;0.35;;
52868;SDS011;39100;53.480;6.158;2022-10-16T03:05:00;1.80;;;0.63;;
52868;SDS011;39100;53.480;6.158;2022-10-16T03:07:26;1.33;;;0.50;;
52868;SDS011;39100;53.480;6.158;2022-10-16T03:09:51;2.30;;;0.35;;
52868;SDS011;39100;53.480;6.158;2022-10-16T03:12:17;0.65;;;0.35;;
52868;SDS011;39100;53.480;6.158;2022-10-16T03:14:42;1.52;;;0.30;;
52868;SDS011;39100;53.480;6.158;2022-10-16T03:17:08;0.98;;;0.40;;
52868;SDS011;39100;53.480;6.158;2022-10-16T03:19:34;2.30;;;0.65;;
52868;SDS011;39100;53.480;6.158;2022-10-16T03:22:00;0.55;;;0.32;;
52868;SDS011;39100;53.480;6.158;2022-10-16T03:24:26;0.82;;;0.40;;
52868;SDS011;39100;53.480;6.158;2022-10-16T03:26:52;0.20;;;0.10;;
52868;SDS011;39100;53.480;6.158;2022-10-16T03:29:17;1.52;;;0.55;;
52868;SDS011;39100;53.480;6.158;2022-10-16T03:31:43;1.15;;;0.40;;
52868;SDS011;39100;53.480;6.158;2022-10-16T03:34:08;2.00;;;0.40;;
52868;SDS011;39100;53.480;6.158;2022-10-16T03:36:34;1.50;;;0.50;;
52868;SDS011;39100;53.480;6.158;2022-10-16T03:39:00;0.75;;;0.32;;
52868;SDS011;39100;53.480;6.158;2022-10-16T03:41:26;1.90;;;0.50;;
52868;SDS011;39100;53.480;6.158;2022-10-16T03:43:51;0.85;;;0.40;;
52868;SDS011;39100;53.480;6.158;2022-10-16T03:46:17;0.38;;;0.20;;
52868;SDS011;39100;53.480;6.158;2022-10-16T03:48:42;1.13;;;0.45;;
52868;SDS011;39100;53.480;6.158;2022-10-16T03:51:08;1.20;;;0.57;;
52868;SDS011;39100;53.480;6.158;2022-10-16T03:53:33;0.80;;;0.50;;
52868;SDS011;39100;53.480;6.158;2022-10-16T03:55:59;1.30;;;0.40;;
52868;SDS011;39100;53.480;6.158;2022-10-16T03:58:25;0.20;;;0.20;;
52868;SDS011;39100;53.480;6.158;2022-10-16T04:00:50;2.47;;;0.80;;
52868;SDS011;39100;53.480;6.158;2022-10-16T04:03:16;1.05;;;0.43;;
52868;SDS011;39100;53.480;6.158;2022-10-16T04:05:43;0.47;;;0.30;;
52868;SDS011;39100;53.480;6.158;2022-10-16T04:08:09;0.88;;;0.40;;
52868;SDS011;39100;53.480;6.158;2022-10-16T04:10:34;0.77;;;0.10;;
52868;SDS011;39100;53.480;6.158;2022-10-16T04:13:00;1.67;;;0.40;;
52868;SDS011;39100;53.480;6.158;2022-10-16T04:15:25;1.15;;;0.52;;
52868;SDS011;39100;53.480;6.158;2022-10-16T04:17:51;1.40;;;0.35;;
52868;SDS011;39100;53.480;6.158;2022-10-16T04:20:17;0.22;;;0.22;;
52868;SDS011;39100;53.480;6.158;2022-10-16T04:22:43;2.78;;;1.00;;
52868;SDS011;39100;53.480;6.158;2022-10-16T04:25:09;0.50;;;0.30;;
52868;SDS011;39100;53.480;6.158;2022-10-16T04:27:36;2.65;;;0.40;;
52868;SDS011;39100;53.480;6.158;2022-10-16T04:30:01;0.73;;;0.40;;
52868;SDS011;39100;53.480;6.158;2022-10-16T04:32:27;1.35;;;0.30;;
52868;SDS011;39100;53.480;6.158;2022-10-16T04:34:53;2.95;;;0.40;;
52868;SDS011;39100;53.480;6.158;2022-10-16T04:37:18;3.33;;;0.30;;
52868;SDS011;39100;53.480;6.158;2022-10-16T04:39:47;3.10;;;0.57;;
52868;SDS011;39100;53.480;6.158;2022-10-16T04:42:13;4.80;;;1.05;;
52868;SDS011;39100;53.480;6.158;2022-10-16T04:44:38;0.63;;;0.28;;
52868;SDS011;39100;53.480;6.158;2022-10-16T04:47:04;0.90;;;0.25;;
52868;SDS011;39100;53.480;6.158;2022-10-16T04:49:30;3.08;;;0.35;;
52868;SDS011;39100;53.480;6.158;2022-10-16T04:51:55;3.05;;;0.47;;
52868;SDS011;39100;53.480;6.158;2022-10-16T04:54:21;1.70;;;0.20;;
52868;SDS011;39100;53.480;6.158;2022-10-16T04:56:46;1.65;;;0.50;;
52868;SDS011;39100;53.480;6.158;2022-10-16T04:59:14;2.15;;;0.40;;
52868;SDS011;39100;53.480;6.158;2022-10-16T05:01:40;2.25;;;0.40;;
52868;SDS011;39100;53.480;6.158;2022-10-16T05:04:05;3.30;;;0.50;;
52868;SDS011;39100;53.480;6.158;2022-10-16T05:06:31;0.68;;;0.20;;
52868;SDS011;39100;53.480;6.158;2022-10-16T05:08:57;2.88;;;0.60;;
52868;SDS011;39100;53.480;6.158;2022-10-16T05:11:22;4.90;;;0.40;;
52868;SDS011;39100;53.480;6.158;2022-10-16T05:13:48;1.20;;;0.20;;
52868;SDS011;39100;53.480;6.158;2022-10-16T05:16:13;1.92;;;0.70;;
52868;SDS011;39100;53.480;6.158;2022-10-16T05:18:39;2.55;;;0.68;;
52868;SDS011;39100;53.480;6.158;2022-10-16T05:21:04;3.90;;;0.50;;
52868;SDS011;39100;53.480;6.158;2022-10-16T05:23:30;2.03;;;0.40;;
52868;SDS011;39100;53.480;6.158;2022-10-16T05:25:57;1.27;;;0.30;;
52868;SDS011;39100;53.480;6.158;2022-10-16T05:28:25;3.05;;;0.40;;
52868;SDS011;39100;53.480;6.158;2022-10-16T05:30:51;1.85;;;0.43;;
52868;SDS011;39100;53.480;6.158;2022-10-16T05:33:19;1.80;;;0.20;;
52868;SDS011;39100;53.480;6.158;2022-10-16T05:35:45;2.25;;;0.30;;
52868;SDS011;39100;53.480;6.158;2022-10-16T05:38:11;4.22;;;0.40;;
52868;SDS011;39100;53.480;6.158;2022-10-16T05:40:37;0.98;;;0.30;;
52868;SDS011;39100;53.480;6.158;2022-10-16T05:43:02;2.53;;;0.25;;
52868;SDS011;39100;53.480;6.158;2022-10-16T05:45:28;0.90;;;0.52;;
52868;SDS011;39100;53.480;6.158;2022-10-16T05:47:53;2.03;;;0.40;;
52868;SDS011;39100;53.480;6.158;2022-10-16T05:50:19;1.15;;;0.30;;
52868;SDS011;39100;53.480;6.158;2022-10-16T05:52:45;4.18;;;0.82;;
52868;SDS011;39100;53.480;6.158;2022-10-16T05:55:10;1.55;;;0.25;;
52868;SDS011;39100;53.480;6.158;2022-10-16T05:57:36;2.35;;;0.40;;
52868;SDS011;39100;53.480;6.158;2022-10-16T06:00:02;1.13;;;0.45;;
52868;SDS011;39100;53.480;6.158;2022-10-16T06:02:28;3.15;;;0.63;;
52868;SDS011;39100;53.480;6.158;2022-10-16T06:04:54;1.75;;;0.57;;
52868;SDS011;39100;53.480;6.158;2022-10-16T06:07:19;0.77;;;0.55;;
52868;SDS011;39100;53.480;6.158;2022-10-16T06:09:49;1.35;;;0.70;;
52868;SDS011;39100;53.480;6.158;2022-10-16T06:12:15;4.13;;;0.90;;
52868;SDS011;39100;53.480;6.158;2022-10-16T06:14:41;2.05;;;0.80;;
52868;SDS011;39100;53.480;6.158;2022-10-16T06:17:07;1.65;;;0.85;;
52868;SDS011;39100;53.480;6.158;2022-10-16T06:19:32;3.20;;;0.55;;
52868;SDS011;39100;53.480;6.158;2022-10-16T06:21:58;1.08;;;0.40;;
52868;SDS011;39100;53.480;6.158;2022-10-16T06:24:24;1.55;;;0.55;;
52868;SDS011;39100;53.480;6.158;2022-10-16T06:26:50;1.75;;;0.60;;
52868;SDS011;39100;53.480;6.158;2022-10-16T06:29:15;0.77;;;0.52;;
52868;SDS011;39100;53.480;6.158;2022-10-16T06:31:41;0.88;;;0.73;;
52868;SDS011;39100;53.480;6.158;2022-10-16T06:34:08;1.92;;;0.60;;
52868;SDS011;39100;53.480;6.158;2022-10-16T06:36:35;1.50;;;0.50;;
52868;SDS011;39100;53.480;6.158;2022-10-16T06:39:02;4.45;;;0.50;;
52868;SDS011;39100;53.480;6.158;2022-10-16T06:41:28;2.47;;;0.70;;
52868;SDS011;39100;53.480;6.158;2022-10-16T06:43:53;2.25;;;0.98;;
52868;SDS011;39100;53.480;6.158;2022-10-16T06:46:20;3.40;;;0.50;;
52868;SDS011;39100;53.480;6.158;2022-10-16T06:48:48;2.70;;;1.00;;
52868;SDS011;39100;53.480;6.158;2022-10-16T06:51:15;3.50;;;0.70;;
52868;SDS011;39100;53.480;6.158;2022-10-16T06:53:43;1.33;;;0.52;;
52868;SDS011;39100;53.480;6.158;2022-10-16T06:56:21;1.67;;;0.75;;
52868;SDS011;39100;53.480;6.158;2022-10-16T06:58:51;3.53;;;1.05;;
52868;SDS011;39100;53.480;6.158;2022-10-16T07:01:18;2.85;;;0.90;;
52868;SDS011;39100;53.480;6.158;2022-10-16T07:03:45;0.75;;;0.28;;
52868;SDS011;39100;53.480;6.158;2022-10-16T07:06:12;1.15;;;0.50;;
52868;SDS011;39100;53.480;6.158;2022-10-16T07:08:40;2.33;;;0.73;;
52868;SDS011;39100;53.480;6.158;2022-10-16T07:11:08;1.20;;;0.55;;
52868;SDS011;39100;53.480;6.158;2022-10-16T07:13:35;3.95;;;0.60;;
52868;SDS011;39100;53.480;6.158;2022-10-16T07:16:06;1.83;;;0.38;;
52868;SDS011;39100;53.480;6.158;2022-10-16T07:18:35;2.28;;;0.32;;
52868;SDS011;39100;53.480;6.158;2022-10-16T07:21:08;4.15;;;0.73;;
52868;SDS011;39100;53.480;6.158;2022-10-16T07:23:36;1.58;;;0.73;;
52868;SDS011;39100;53.480;6.158;2022-10-16T07:26:02;1.67;;;0.50;;
52868;SDS011;39100;53.480;6.158;2022-10-16T07:28:28;5.50;;;1.05;;
52868;SDS011;39100;53.480;6.158;2022-10-16T07:30:54;2.38;;;0.30;;
52868;SDS011;39100;53.480;6.158;2022-10-16T07:33:20;1.30;;;0.45;;
52868;SDS011;39100;53.480;6.158;2022-10-16T07:35:51;1.77;;;0.55;;
52868;SDS011;39100;53.480;6.158;2022-10-16T07:38:17;2.42;;;0.50;;
52868;SDS011;39100;53.480;6.158;2022-10-16T07:40:43;5.35;;;0.95;;
52868;SDS011;39100;53.480;6.158;2022-10-16T07:43:09;1.77;;;0.50;;
52868;SDS011;39100;53.480;6.158;2022-10-16T07:45:35;1.08;;;0.35;;
52868;SDS011;39100;53.480;6.158;2022-10-16T07:48:00;3.42;;;0.50;;
52868;SDS011;39100;53.480;6.158;2022-10-16T07:50:26;1.63;;;0.40;;
52868;SDS011;39100;53.480;6.158;2022-10-16T07:52:51;2.33;;;0.68;;
52868;SDS011;39100;53.480;6.158;2022-10-16T07:55:17;2.20;;;0.40;;
52868;SDS011;39100;53.480;6.158;2022-10-16T07:57:43;0.63;;;0.30;;
52868;SDS011;39100;53.480;6.158;2022-10-16T08:00:08;1.60;;;0.57;;
52868;SDS011;39100;53.480;6.158;2022-10-16T08:02:38;3.08;;;0.70;;
52868;SDS011;39100;53.480;6.158;2022-10-16T08:05:05;3.38;;;0.70;;
52868;SDS011;39100;53.480;6.158;2022-10-16T08:07:31;2.13;;;0.47;;
52868;SDS011;39100;53.480;6.158;2022-10-16T08:09:56;1.05;;;0.60;;
52868;SDS011;39100;53.480;6.158;2022-10-16T08:12:23;2.10;;;0.45;;
52868;SDS011;39100;53.480;6.158;2022-10-16T08:14:49;0.85;;;0.30;;
52868;SDS011;39100;53.480;6.158;2022-10-16T08:17:15;0.70;;;0.30;;
52868;SDS011;39100;53.480;6.158;2022-10-16T08:19:43;2.75;;;0.40;;
52868;SDS011;39100;53.480;6.158;2022-10-16T08:22:12;2.45;;;0.20;;
52868;SDS011;39100;53.480;6.158;2022-10-16T08:24:39;1.77;;;0.40;;
52868;SDS011;39100;53.480;6.158;2022-10-16T08:27:05;1.50;;;0.43;;
52868;SDS011;39100;53.480;6.158;2022-10-16T08:29:31;2.55;;;0.88;;
52868;SDS011;39100;53.480;6.158;2022-10-16T08:31:57;2.28;;;0.60;;
52868;SDS011;39100;53.480;6.158;2022-10-16T08:34:23;1.48;;;0.68;;
52868;SDS011;39100;53.480;6.158;2022-10-16T08:36:49;1.85;;;0.63;;
52868;SDS011;39100;53.480;6.158;2022-10-16T08:39:15;3.55;;;0.57;;
52868;SDS011;39100;53.480;6.158;2022-10-16T08:44:32;2.38;;;0.70;;
52868;SDS011;39100;53.480;6.158;2022-10-16T08:47:25;1.90;;;0.70;;
52868;SDS011;39100;53.480;6.158;2022-10-16T08:50:10;1.85;;;0.47;;
52868;SDS011;39100;53.480;6.158;2022-10-16T08:52:39;2.60;;;0.60;;
52868;SDS011;39100;53.480;6.158;2022-10-16T08:55:16;1.55;;;0.50;;
52868;SDS011;39100;53.480;6.158;2022-10-16T08:58:07;3.92;;;0.40;;
52868;SDS011;39100;53.480;6.158;2022-10-16T09:00:39;2.78;;;0.47;;
52868;SDS011;39100;53.480;6.158;2022-10-16T09:03:10;3.78;;;0.80;;
52868;SDS011;39100;53.480;6.158;2022-10-16T09:08:20;3.83;;;0.75;;
52868;SDS011;39100;53.480;6.158;2022-10-16T09:10:56;9.63;;;1.85;;
52868;SDS011;39100;53.480;6.158;2022-10-16T09:13:23;6.90;;;0.70;;
52868;SDS011;39100;53.480;6.158;2022-10-16T09:19:09;3.75;;;1.17;;
52868;SDS011;39100;53.480;6.158;2022-10-16T09:21:45;7.65;;;1.33;;
52868;SDS011;39100;53.480;6.158;2022-10-16T09:24:17;2.38;;;0.52;;
52868;SDS011;39100;53.480;6.158;2022-10-16T09:26:44;4.97;;;1.15;;
52868;SDS011;39100;53.480;6.158;2022-10-16T09:29:11;4.45;;;1.35;;
52868;SDS011;39100;53.480;6.158;2022-10-16T09:31:38;10.85;;;1.33;;
52868;SDS011;39100;53.480;6.158;2022-10-16T09:34:04;5.13;;;0.70;;
52868;SDS011;39100;53.480;6.158;2022-10-16T09:36:35;4.45;;;1.55;;
52868;SDS011;39100;53.480;6.158;2022-10-16T09:39:07;4.82;;;1.20;;
52868;SDS011;39100;53.480;6.158;2022-10-16T09:41:35;7.45;;;1.48;;
52868;SDS011;39100;53.480;6.158;2022-10-16T09:44:02;6.43;;;0.50;;
52868;SDS011;39100;53.480;6.158;2022-10-16T09:46:31;6.07;;;0.70;;
52868;SDS011;39100;53.480;6.158;2022-10-16T09:49:03;4.65;;;0.73;;
52868;SDS011;39100;53.480;6.158;2022-10-16T09:51:49;3.05;;;0.82;;
52868;SDS011;39100;53.480;6.158;2022-10-16T09:54:16;8.25;;;0.70;;
52868;SDS011;39100;53.480;6.158;2022-10-16T09:56:44;3.30;;;0.65;;
52868;SDS011;39100;53.480;6.158;2022-10-16T09:59:15;7.45;;;1.30;;
52868;SDS011;39100;53.480;6.158;2022-10-16T10:04:16;5.32;;;1.27;;
52868;SDS011;39100;53.480;6.158;2022-10-16T10:06:45;2.08;;;0.70;;
52868;SDS011;39100;53.480;6.158;2022-10-16T10:14:20;6.80;;;1.60;;
52868;SDS011;39100;53.480;6.158;2022-10-16T10:16:51;4.75;;;0.70;;
52868;SDS011;39100;53.480;6.158;2022-10-16T10:19:22;11.82;;;1.60;;
52868;SDS011;39100;53.480;6.158;2022-10-16T10:21:51;10.85;;;1.58;;
52868;SDS011;39100;53.480;6.158;2022-10-16T10:24:17;6.32;;;0.70;;
52868;SDS011;39100;53.480;6.158;2022-10-16T10:32:30;9.88;;;1.35;;
52868;SDS011;39100;53.480;6.158;2022-10-16T10:35:22;5.38;;;1.10;;
52868;SDS011;39100;53.480;6.158;2022-10-16T10:38:04;11.30;;;1.52;;
52868;SDS011;39100;53.480;6.158;2022-10-16T10:40:52;9.45;;;1.83;;
52868;SDS011;39100;53.480;6.158;2022-10-16T10:46:35;8.80;;;1.30;;
52868;SDS011;39100;53.480;6.158;2022-10-16T11:05:19;5.45;;;1.45;;
52868;SDS011;39100;53.480;6.158;2022-10-16T11:08:00;6.90;;;1.00;;
52868;SDS011;39100;53.480;6.158;2022-10-16T11:13:23;6.38;;;1.33;;
52868;SDS011;39100;53.480;6.158;2022-10-16T11:16:11;6.78;;;1.17;;
52868;SDS011;39100;53.480;6.158;2022-10-16T11:18:49;5.65;;;0.68;;
52868;SDS011;39100;53.480;6.158;2022-10-16T11:21:30;10.32;;;2.30;;
52868;SDS011;39100;53.480;6.158;2022-10-16T11:24:06;7.53;;;1.00;;
52868;SDS011;39100;53.480;6.158;2022-10-16T11:26:42;4.32;;;0.93;;
52868;SDS011;39100;53.480;6.158;2022-10-16T11:29:12;9.77;;;1.00;;
52868;SDS011;39100;53.480;6.158;2022-10-16T11:31:47;6.93;;;0.80;;
52868;SDS011;39100;53.480;6.158;2022-10-16T11:34:21;6.20;;;0.77;;
52868;SDS011;39100;53.480;6.158;2022-10-16T11:37:11;9.95;;;1.45;;
52868;SDS011;39100;53.480;6.158;2022-10-16T11:39:50;5.97;;;0.80;;
52868;SDS011;39100;53.480;6.158;2022-10-16T11:48:08;6.68;;;1.15;;
52868;SDS011;39100;53.480;6.158;2022-10-16T11:55:59;2.30;;;0.70;;
52868;SDS011;39100;53.480;6.158;2022-10-16T12:04:21;4.65;;;0.50;;
52868;SDS011;39100;53.480;6.158;2022-10-16T12:07:12;6.72;;;0.80;;
52868;SDS011;39100;53.480;6.158;2022-10-16T12:09:42;6.97;;;0.60;;
52868;SDS011;39100;53.480;6.158;2022-10-16T12:15:24;3.35;;;0.68;;
52868;SDS011;39100;53.480;6.158;2022-10-16T12:17:54;4.28;;;0.43;;
52868;SDS011;39100;53.480;6.158;2022-10-16T12:20:22;4.85;;;1.05;;
52868;SDS011;39100;53.480;6.158;2022-10-16T12:25:25;4.90;;;1.00;;
52868;SDS011;39100;53.480;6.158;2022-10-16T12:28:06;4.07;;;0.93;;
52868;SDS011;39100;53.480;6.158;2022-10-16T12:31:00;12.10;;;1.83;;
52868;SDS011;39100;53.480;6.158;2022-10-16T12:33:37;9.15;;;1.63;;
52868;SDS011;39100;53.480;6.158;2022-10-16T12:36:13;7.63;;;1.27;;
52868;SDS011;39100;53.480;6.158;2022-10-16T12:38:51;6.57;;;0.77;;
52868;SDS011;39100;53.480;6.158;2022-10-16T12:41:34;4.53;;;1.10;;
52868;SDS011;39100;53.480;6.158;2022-10-16T12:44:02;6.30;;;1.20;;
52868;SDS011;39100;53.480;6.158;2022-10-16T12:49:04;5.80;;;1.10;;
52868;SDS011;39100;53.480;6.158;2022-10-16T12:51:39;5.15;;;0.50;;
52868;SDS011;39100;53.480;6.158;2022-10-16T12:56:46;9.07;;;1.52;;
52868;SDS011;39100;53.480;6.158;2022-10-16T12:59:24;6.75;;;0.60;;
52868;SDS011;39100;53.480;6.158;2022-10-16T13:02:58;3.00;;;0.70;;
52868;SDS011;39100;53.480;6.158;2022-10-16T13:07:45;4.68;;;0.90;;
52868;SDS011;39100;53.480;6.158;2022-10-16T13:13:13;4.30;;;0.50;;
52868;SDS011;39100;53.480;6.158;2022-10-16T13:15:58;7.50;;;0.60;;
52868;SDS011;39100;53.480;6.158;2022-10-16T13:18:42;4.60;;;0.68;;
52868;SDS011;39100;53.480;6.158;2022-10-16T13:21:30;4.82;;;0.98;;
52868;SDS011;39100;53.480;6.158;2022-10-16T13:26:49;4.30;;;0.80;;
52868;SDS011;39100;53.480;6.158;2022-10-16T13:29:23;4.85;;;0.63;;
52868;SDS011;39100;53.480;6.158;2022-10-16T13:31:54;5.25;;;1.15;;
52868;SDS011;39100;53.480;6.158;2022-10-16T13:34:20;3.97;;;0.50;;
52868;SDS011;39100;53.480;6.158;2022-10-16T13:36:51;1.20;;;0.50;;
52868;SDS011;39100;53.480;6.158;2022-10-16T13:39:27;5.80;;;1.13;;
52868;SDS011;39100;53.480;6.158;2022-10-16T13:42:00;5.05;;;1.13;;
52868;SDS011;39100;53.480;6.158;2022-10-16T13:44:28;6.00;;;1.23;;
52868;SDS011;39100;53.480;6.158;2022-10-16T13:47:00;4.43;;;0.82;;
52868;SDS011;39100;53.480;6.158;2022-10-16T13:49:26;5.00;;;0.60;;
52868;SDS011;39100;53.480;6.158;2022-10-16T13:51:55;5.78;;;1.13;;
52868;SDS011;39100;53.480;6.158;2022-10-16T13:54:22;5.32;;;0.85;;
52868;SDS011;39100;53.480;6.158;2022-10-16T13:56:49;5.93;;;0.52;;
52868;SDS011;39100;53.480;6.158;2022-10-16T13:59:48;1.67;;;0.50;;
52868;SDS011;39100;53.480;6.158;2022-10-16T14:04:47;4.93;;;0.40;;
52868;SDS011;39100;53.480;6.158;2022-10-16T14:07:14;4.07;;;0.50;;
52868;SDS011;39100;53.480;6.158;2022-10-16T14:09:50;3.75;;;0.60;;
52868;SDS011;39100;53.480;6.158;2022-10-16T14:12:17;4.30;;;1.00;;
52868;SDS011;39100;53.480;6.158;2022-10-16T14:14:44;4.32;;;0.60;;
52868;SDS011;39100;53.480;6.158;2022-10-16T14:17:15;4.47;;;0.85;;
52868;SDS011;39100;53.480;6.158;2022-10-16T14:22:46;5.72;;;1.45;;
52868;SDS011;39100;53.480;6.158;2022-10-16T14:30:47;4.68;;;1.02;;
52868;SDS011;39100;53.480;6.158;2022-10-16T14:33:21;5.15;;;0.35;;
52868;SDS011;39100;53.480;6.158;2022-10-16T14:36:03;3.40;;;1.05;;
52868;SDS011;39100;53.480;6.158;2022-10-16T14:38:35;6.18;;;0.82;;
52868;SDS011;39100;53.480;6.158;2022-10-16T14:41:05;6.25;;;2.35;;
52868;SDS011;39100;53.480;6.158;2022-10-16T14:43:38;5.00;;;0.65;;
52868;SDS011;39100;53.480;6.158;2022-10-16T14:46:07;4.20;;;0.65;;
52868;SDS011;39100;53.480;6.158;2022-10-16T14:48:45;5.20;;;0.40;;
52868;SDS011;39100;53.480;6.158;2022-10-16T14:51:16;5.07;;;0.57;;
52868;SDS011;39100;53.480;6.158;2022-10-16T14:53:43;4.25;;;0.50;;
52868;SDS011;39100;53.480;6.158;2022-10-16T14:56:19;4.25;;;1.27;;
52868;SDS011;39100;53.480;6.158;2022-10-16T14:58:47;2.63;;;0.95;;
52868;SDS011;39100;53.480;6.158;2022-10-16T15:01:14;4.93;;;1.33;;
52868;SDS011;39100;53.480;6.158;2022-10-16T15:03:40;1.55;;;0.47;;
52868;SDS011;39100;53.480;6.158;2022-10-16T15:06:12;4.72;;;0.50;;
52868;SDS011;39100;53.480;6.158;2022-10-16T15:08:39;2.17;;;0.70;;
52868;SDS011;39100;53.480;6.158;2022-10-16T15:11:07;2.13;;;0.40;;
52868;SDS011;39100;53.480;6.158;2022-10-16T15:13:42;4.88;;;0.82;;
52868;SDS011;39100;53.480;6.158;2022-10-16T15:16:10;3.55;;;0.50;;
52868;SDS011;39100;53.480;6.158;2022-10-16T15:18:37;5.30;;;0.75;;
52868;SDS011;39100;53.480;6.158;2022-10-16T15:21:03;5.20;;;0.60;;
52868;SDS011;39100;53.480;6.158;2022-10-16T15:23:28;4.30;;;1.13;;
52868;SDS011;39100;53.480;6.158;2022-10-16T15:25:54;3.15;;;0.57;;
52868;SDS011;39100;53.480;6.158;2022-10-16T15:28:21;4.47;;;1.38;;
52868;SDS011;39100;53.480;6.158;2022-10-16T15:30:49;4.47;;;1.13;;
52868;SDS011;39100;53.480;6.158;2022-10-16T15:33:17;3.10;;;1.00;;
52868;SDS011;39100;53.480;6.158;2022-10-16T15:35:48;2.85;;;0.70;;
52868;SDS011;39100;53.480;6.158;2022-10-16T15:38:17;4.13;;;1.20;;
52868;SDS011;39100;53.480;6.158;2022-10-16T15:40:45;3.97;;;1.20;;
52868;SDS011;39100;53.480;6.158;2022-10-16T15:43:11;4.25;;;0.98;;
52868;SDS011;39100;53.480;6.158;2022-10-16T15:45:37;6.07;;;1.35;;
52868;SDS011;39100;53.480;6.158;2022-10-16T15:48:02;3.25;;;0.65;;
52868;SDS011;39100;53.480;6.158;2022-10-16T15:50:30;1.50;;;0.50;;
52868;SDS011;39100;53.480;6.158;2022-10-16T15:52:56;2.75;;;0.50;;
52868;SDS011;39100;53.480;6.158;2022-10-16T15:55:22;3.45;;;0.50;;
52868;SDS011;39100;53.480;6.158;2022-10-16T15:57:47;3.78;;;0.40;;
52868;SDS011;39100;53.480;6.158;2022-10-16T16:00:14;1.98;;;0.30;;
52868;SDS011;39100;53.480;6.158;2022-10-16T16:02:42;2.58;;;0.40;;
52868;SDS011;39100;53.480;6.158;2022-10-16T16:05:09;5.05;;;0.57;;
52868;SDS011;39100;53.480;6.158;2022-10-16T16:07:36;2.22;;;0.75;;
52868;SDS011;39100;53.480;6.158;2022-10-16T16:10:03;3.15;;;0.55;;
52868;SDS011;39100;53.480;6.158;2022-10-16T16:12:30;3.25;;;1.23;;
52868;SDS011;39100;53.480;6.158;2022-10-16T16:14:56;4.20;;;1.40;;
52868;SDS011;39100;53.480;6.158;2022-10-16T16:17:22;3.40;;;1.27;;
52868;SDS011;39100;53.480;6.158;2022-10-16T16:19:48;9.32;;;2.03;;
52868;SDS011;39100;53.480;6.158;2022-10-16T16:22:14;4.32;;;1.10;;
52868;SDS011;39100;53.480;6.158;2022-10-16T16:24:39;3.78;;;0.80;;
52868;SDS011;39100;53.480;6.158;2022-10-16T16:27:05;2.10;;;1.00;;
52868;SDS011;39100;53.480;6.158;2022-10-16T16:29:30;5.35;;;1.33;;
52868;SDS011;39100;53.480;6.158;2022-10-16T16:31:56;1.25;;;0.73;;
52868;SDS011;39100;53.480;6.158;2022-10-16T16:34:23;1.92;;;1.23;;
52868;SDS011;39100;53.480;6.158;2022-10-16T16:36:49;4.82;;;1.50;;
52868;SDS011;39100;53.480;6.158;2022-10-16T16:39:15;8.05;;;2.17;;
52868;SDS011;39100;53.480;6.158;2022-10-16T16:41:41;5.63;;;2.47;;